Verbank, New York
Current Conditions -  °F | °C
As of 3:04 AM on Monday 22 Dec 2014 (Local Time) from KPOU Reporting Station
Overcast Overcast  
Wind Chill: 33°   Ceiling: 1400
Heat Index: 33°   Visibility: 10mi
Dew Point: 27°   Wind: 3mph
Humidity: 78%   Direction: 330°NNW
Pressure: 30.35"   Gusts: NA
Location:  41.72°N, 73.71°W
Report Text: KPOU 220804Z AUTO 33003KT 10SM OVC014 01/M03 A3035 RMK AO2 T00061028 TSNO
Loading
Personal Weather Stations






























Interactive Weather Map New forecast layout! Learn more

10-Day Weather Forecast

Advertisements
Track Severe Weather on mobile